Time;durP1;ratioP1;P1;durP2;ratioP2;P2;SDS_P1;SDS_P2;PMS_P1;PMS_P2;Temp;Humidity;BMP_temperature;BMP_pressure;BME280_temperature;BME280_humidity;BME280_pressure;Samples;Min_cycle;Max_cycle;Signal;HPM_P1;HPM_P2
2023/09/28 00:02:55;;;;;;;0.63;0.47;;;12.20;99.90;;;;;;4946811;28;20050;-79
2023/09/28 00:05:21;;;;;;;0.77;0.77;;;12.20;99.90;;;;;;4985154;28;20039;-79
2023/09/28 00:07:49;;;;;;;0.38;0.30;;;12.20;99.90;;;;;;4958915;28;20620;-78
2023/09/28 00:10:16;;;;;;;0.22;0.22;;;12.30;99.90;;;;;;4973020;28;20042;-78
2023/09/28 00:12:45;;;;;;;1.23;1.08;;;12.30;99.90;;;;;;4963031;28;20035;-78
2023/09/28 00:15:11;;;;;;;2.60;0.60;;;12.40;99.90;;;;;;4971081;28;20058;-79
2023/09/28 00:17:38;;;;;;;0.43;0.43;;;12.40;99.90;;;;;;4977815;28;20054;-79
2023/09/28 00:20:09;;;;;;;0.10;0.10;;;12.40;99.90;;;;;;4961485;28;20046;-79
2023/09/28 00:22:36;;;;;;;;;;;12.40;99.90;;;;;;4970441;28;20047;-79
2023/09/28 00:25:09;;;;;;;0.73;0.68;;;12.40;99.90;;;;;;4963863;28;19906;-80
2023/09/28 00:27:37;;;;;;;1.15;1.00;;;12.40;99.90;;;;;;4973545;28;20038;-80
2023/09/28 00:30:05;;;;;;;2.85;1.38;;;12.40;99.90;;;;;;4962734;28;20043;-79
2023/09/28 00:32:33;;;;;;;1.00;0.75;;;12.50;99.90;;;;;;4968507;28;20039;-80
2023/09/28 00:34:59;;;;;;;1.48;1.27;;;12.50;99.90;;;;;;4960774;28;20150;-79
2023/09/28 00:37:25;;;;;;;0.93;0.80;;;12.60;99.90;;;;;;4962907;28;20499;-79
2023/09/28 00:39:54;;;;;;;0.22;0.22;;;12.60;99.90;;;;;;4970717;28;20625;-79
2023/09/28 00:42:22;;;;;;;1.17;0.88;;;12.70;99.90;;;;;;4957146;28;20408;-80
2023/09/28 00:44:48;;;;;;;1.25;0.77;;;12.70;99.90;;;;;;4941881;28;20039;-80
2023/09/28 00:47:16;;;;;;;0.57;0.57;;;12.70;99.90;;;;;;4961409;28;20479;-79
2023/09/28 00:49:43;;;;;;;1.05;0.75;;;12.70;99.90;;;;;;4964887;28;20038;-79
2023/09/28 00:52:11;;;;;;;2.33;0.93;;;12.70;99.90;;;;;;4939753;28;20047;-79
2023/09/28 00:54:38;;;;;;;0.98;0.77;;;12.70;99.90;;;;;;4965686;28;20031;-79
2023/09/28 00:57:06;;;;;;;0.60;0.60;;;12.80;99.90;;;;;;4964689;28;20043;-79
2023/09/28 00:59:32;;;;;;;1.63;1.48;;;12.70;99.90;;;;;;4946628;28;20129;-82
2023/09/28 01:01:59;;;;;;;1.38;0.93;;;12.70;99.90;;;;;;4975247;28;20047;-80
2023/09/28 01:04:26;;;;;;;0.20;0.17;;;12.70;99.90;;;;;;4955847;28;20042;-80
2023/09/28 01:06:52;;;;;;;1.50;1.40;;;12.80;99.90;;;;;;4960960;28;20301;-80
2023/09/28 01:09:18;;;;;;;0.90;0.90;;;12.80;99.90;;;;;;4947768;28;20385;-79
2023/09/28 01:11:46;;;;;;;1.88;0.93;;;12.90;99.90;;;;;;4964279;28;20042;-79
2023/09/28 01:14:12;;;;;;;0.88;0.65;;;13.00;99.90;;;;;;4976441;28;20424;-79
2023/09/28 01:16:39;;;;;;;1.02;0.82;;;13.20;99.90;;;;;;4959496;28;20484;-79
2023/09/28 01:19:06;;;;;;;0.50;0.50;;;13.30;99.90;;;;;;4975670;28;20494;-79
2023/09/28 01:21:32;;;;;;;0.63;0.63;;;13.30;99.90;;;;;;4951142;28;20054;-80
2023/09/28 01:23:59;;;;;;;0.50;0.50;;;13.30;99.90;;;;;;4966292;28;20065;-79
2023/09/28 01:26:30;;;;;;;0.38;0.30;;;13.30;99.90;;;;;;4976012;28;20031;-79
2023/09/28 01:28:57;;;;;;;4.55;1.25;;;13.30;99.90;;;;;;4968672;28;20031;-79
2023/09/28 01:31:24;;;;;;;1.17;1.08;;;13.40;99.90;;;;;;4986961;28;20038;-81
2023/09/28 01:33:50;;;;;;;0.50;0.50;;;13.40;99.90;;;;;;4978014;28;20051;-79
2023/09/28 01:36:18;;;;;;;0.55;0.47;;;13.50;99.90;;;;;;4965264;28;20054;-79
2023/09/28 01:39:02;;;;;;;1.10;0.75;;;13.60;99.90;;;;;;4956214;28;20054;-79
2023/09/28 01:41:28;;;;;;;3.30;1.17;;;13.70;99.90;;;;;;4985368;28;20043;-79
2023/09/28 01:43:54;;;;;;;0.90;0.82;;;13.70;99.90;;;;;;4977977;28;20026;-79
2023/09/28 01:46:20;;;;;;;4.15;1.90;;;13.70;99.90;;;;;;4980263;28;20034;-79
2023/09/28 01:48:46;;;;;;;1.77;1.05;;;13.70;99.90;;;;;;4949282;28;20046;-78
2023/09/28 01:51:12;;;;;;;0.73;0.73;;;13.70;99.90;;;;;;4966916;28;20034;-79
2023/09/28 01:53:38;;;;;;;1.10;0.73;;;13.70;99.90;;;;;;4980281;28;20031;-79
2023/09/28 01:56:05;;;;;;;1.45;1.23;;;13.60;99.90;;;;;;4973478;28;20031;-78
2023/09/28 01:58:31;;;;;;;1.63;1.00;;;13.70;99.90;;;;;;4954565;28;20370;-79
2023/09/28 02:00:57;;;;;;;0.43;0.43;;;13.70;99.90;;;;;;4955957;28;20050;-79
2023/09/28 02:03:25;;;;;;;4.82;2.35;;;13.70;99.90;;;;;;4960544;28;20043;-79
2023/09/28 02:05:52;;;;;;;1.25;0.95;;;13.70;99.90;;;;;;4960984;28;20050;-79
2023/09/28 02:08:19;;;;;;;0.60;0.50;;;13.80;99.90;;;;;;4974508;28;20023;-79
2023/09/28 02:10:45;;;;;;;0.85;0.82;;;13.80;99.90;;;;;;4966212;28;20030;-79
2023/09/28 02:13:12;;;;;;;5.93;1.63;;;13.90;99.90;;;;;;4977127;28;20049;-80
2023/09/28 02:15:42;;;;;;;0.65;0.55;;;14.00;99.90;;;;;;4967040;28;20057;-79
2023/09/28 02:18:08;;;;;;;1.40;1.30;;;14.00;99.90;;;;;;4962049;28;20046;-79
2023/09/28 02:20:34;;;;;;;2.83;0.93;;;14.10;99.90;;;;;;4964862;28;20282;-79
2023/09/28 02:23:01;;;;;;;2.53;1.00;;;14.10;99.90;;;;;;4967728;28;20049;-79
2023/09/28 02:25:27;;;;;;;1.25;1.08;;;14.20;99.90;;;;;;4961927;28;20050;-79
2023/09/28 02:27:53;;;;;;;2.00;0.80;;;14.30;99.90;;;;;;4979677;28;20027;-79
2023/09/28 02:30:22;;;;;;;0.70;0.70;;;14.30;99.90;;;;;;4961747;28;20050;-79
2023/09/28 02:32:50;;;;;;;2.78;1.23;;;14.40;99.90;;;;;;4950362;28;20035;-80
2023/09/28 02:35:16;;;;;;;2.92;1.55;;;14.50;99.90;;;;;;4951747;28;20055;-80
2023/09/28 02:37:44;;;;;;;2.55;0.95;;;14.70;99.90;;;;;;4985063;28;20361;-80
2023/09/28 02:40:11;;;;;;;1.52;1.00;;;14.80;99.90;;;;;;4972081;28;20035;-79
2023/09/28 02:42:38;;;;;;;3.47;1.25;;;14.90;75.90;;;;;;4976779;28;20039;-79
2023/09/28 02:45:13;;;;;;;1.52;1.20;;;14.90;58.40;;;;;;4968834;28;20038;-79
2023/09/28 02:47:45;;;;;;;1.42;1.33;;;14.90;65.80;;;;;;4983471;28;20034;-80
2023/09/28 02:50:13;;;;;;;2.65;1.50;;;14.90;62.60;;;;;;4977413;28;20042;-79
2023/09/28 02:52:41;;;;;;;8.80;2.28;;;14.80;79.40;;;;;;4965239;28;20404;-79
2023/09/28 02:55:08;;;;;;;1.63;1.00;;;14.80;90.20;;;;;;4965193;28;20453;-79
2023/09/28 02:57:35;;;;;;;1.38;1.13;;;14.80;90.50;;;;;;4978447;28;20031;-78
2023/09/28 03:00:11;;;;;;;2.15;0.63;;;14.70;91.20;;;;;;4961172;28;20046;-79
2023/09/28 03:02:38;;;;;;;1.00;0.73;;;14.70;91.10;;;;;;4967609;28;20069;-81
2023/09/28 03:05:04;;;;;;;0.95;0.70;;;14.60;79.70;;;;;;4966640;28;20039;-78
2023/09/28 03:07:31;;;;;;;0.90;0.82;;;14.50;78.50;;;;;;4959265;28;20070;-78
2023/09/28 03:09:57;;;;;;;0.77;0.77;;;14.50;85.40;;;;;;4967437;28;20416;-78
2023/09/28 03:12:23;;;;;;;1.38;0.90;;;14.40;82.80;;;;;;4959345;28;20042;-78
2023/09/28 03:14:49;;;;;;;1.40;0.90;;;14.40;90.00;;;;;;4961424;28;20058;-78
2023/09/28 03:17:15;;;;;;;0.88;0.73;;;14.30;99.90;;;;;;4964604;28;20030;-79
2023/09/28 03:19:42;;;;;;;0.63;0.50;;;14.30;99.90;;;;;;4965639;28;20433;-78
2023/09/28 03:22:09;;;;;;;0.82;0.45;;;14.30;99.90;;;;;;4971686;28;20038;-79
2023/09/28 03:24:35;;;;;;;1.27;0.93;;;14.30;99.90;;;;;;4975493;28;20042;-79
2023/09/28 03:27:01;;;;;;;0.60;0.60;;;14.30;99.90;;;;;;4947803;28;20039;-78
2023/09/28 03:29:27;;;;;;;0.20;0.20;;;14.30;99.90;;;;;;4948346;28;20388;-79
2023/09/28 03:31:53;;;;;;;0.93;0.80;;;14.30;99.90;;;;;;4977741;28;20043;-79
2023/09/28 03:34:19;;;;;;;1.98;0.65;;;14.30;99.90;;;;;;4979692;28;20564;-78
2023/09/28 03:36:45;;;;;;;1.38;1.10;;;14.30;99.90;;;;;;4969850;28;20035;-78
2023/09/28 03:39:13;;;;;;;0.55;0.55;;;14.30;99.90;;;;;;4974655;28;20047;-79
2023/09/28 03:41:39;;;;;;;3.45;1.25;;;14.30;99.90;;;;;;4983106;28;20043;-80
2023/09/28 03:44:07;;;;;;;0.45;0.45;;;14.40;99.90;;;;;;4971621;28;20030;-79
2023/09/28 03:46:34;;;;;;;4.20;2.42;;;14.40;99.90;;;;;;4948192;28;20035;-81
2023/09/28 03:49:00;;;;;;;2.78;1.40;;;14.50;99.90;;;;;;4954367;28;20289;-78
2023/09/28 03:51:26;;;;;;;2.08;1.80;;;14.50;99.90;;;;;;4988831;28;20528;-80
2023/09/28 03:53:52;;;;;;;2.72;1.83;;;14.50;99.90;;;;;;4962969;28;20436;-79
2023/09/28 03:56:18;;;;;;;1.85;1.00;;;14.50;99.90;;;;;;4970878;28;20154;-79
2023/09/28 03:58:44;;;;;;;1.15;1.05;;;14.50;99.90;;;;;;4936543;28;20050;-79
2023/09/28 04:01:11;;;;;;;0.30;0.30;;;14.60;99.90;;;;;;4968175;28;20042;-78
2023/09/28 04:03:38;;;;;;;1.98;1.10;;;14.60;99.90;;;;;;4978748;28;20050;-81
2023/09/28 04:06:04;;;;;;;1.27;1.13;;;14.50;99.90;;;;;;4984274;28;20038;-79
2023/09/28 04:08:30;;;;;;;1.75;1.65;;;14.50;99.90;;;;;;4966546;28;20034;-81
2023/09/28 04:10:56;;;;;;;0.70;0.55;;;14.60;99.90;;;;;;4973689;28;20041;-79
2023/09/28 04:13:22;;;;;;;1.30;1.20;;;14.60;99.90;;;;;;4969004;28;20042;-78
2023/09/28 04:15:48;;;;;;;1.38;0.90;;;14.60;99.90;;;;;;4951246;28;20034;-80
2023/09/28 04:18:14;;;;;;;0.47;0.47;;;14.70;99.90;;;;;;4934950;28;20039;-79
2023/09/28 04:20:41;;;;;;;0.57;0.57;;;14.70;99.90;;;;;;4948514;28;20396;-79
2023/09/28 04:23:08;;;;;;;0.82;0.70;;;14.80;91.00;;;;;;4985894;28;20053;-79
2023/09/28 04:25:35;;;;;;;3.38;1.08;;;14.80;67.90;;;;;;4975063;28;20481;-79
2023/09/28 04:28:01;;;;;;;0.82;0.45;;;14.80;48.40;;;;;;4976933;28;20035;-79
2023/09/28 04:30:27;;;;;;;3.00;1.42;;;14.90;35.10;;;;;;4963000;28;20035;-79
2023/09/28 04:32:54;;;;;;;1.13;1.00;;;15.00;17.30;;;;;;4952006;28;20034;-79
2023/09/28 04:35:21;;;;;;;1.75;1.15;;;15.00;2.00;;;;;;4985528;28;20373;-79
2023/09/28 04:37:50;;;;;;;1.13;1.02;;;15.00;1.00;;;;;;4978537;28;20043;-79
2023/09/28 04:40:16;;;;;;;2.30;0.95;;;15.00;1.00;;;;;;4973456;28;20051;-79
2023/09/28 04:42:42;;;;;;;1.23;0.93;;;15.00;1.00;;;;;;4966365;28;20039;-79
2023/09/28 04:45:10;;;;;;;2.92;1.23;;;15.00;1.00;;;;;;4966135;28;20031;-78
2023/09/28 04:47:36;;;;;;;6.13;1.65;;;15.00;1.00;;;;;;4977084;28;20033;-78
2023/09/28 04:50:03;;;;;;;0.30;0.30;;;15.00;1.00;;;;;;4964341;28;20353;-78
2023/09/28 04:52:30;;;;;;;0.95;0.80;;;15.10;1.00;;;;;;4965891;28;20031;-79
2023/09/28 04:54:57;;;;;;;1.00;0.90;;;15.10;1.00;;;;;;4970033;28;20369;-79
2023/09/28 04:57:25;;;;;;;2.70;1.67;;;15.10;1.00;;;;;;4986529;28;20038;-79
2023/09/28 04:59:51;;;;;;;1.40;1.00;;;15.10;1.00;;;;;;4981155;28;20035;-79
2023/09/28 05:02:17;;;;;;;0.65;0.65;;;15.10;1.00;;;;;;4981961;28;20042;-81
2023/09/28 05:04:43;;;;;;;2.47;1.15;;;15.10;1.00;;;;;;4978196;28;20049;-80
2023/09/28 05:07:09;;;;;;;1.65;1.02;;;15.10;1.00;;;;;;4964744;28;20042;-79
2023/09/28 05:09:36;;;;;;;1.73;1.10;;;15.10;1.00;;;;;;4974861;28;20121;-78
2023/09/28 05:12:02;;;;;;;0.55;0.47;;;15.10;1.00;;;;;;4982812;28;20046;-79
2023/09/28 05:14:28;;;;;;;1.02;0.93;;;15.10;1.00;;;;;;4963110;28;20099;-78
2023/09/28 05:16:55;;;;;;;1.38;1.23;;;15.10;1.00;;;;;;4981491;28;20027;-79
2023/09/28 05:19:21;;;;;;;0.47;0.47;;;15.10;1.00;;;;;;4967789;28;20034;-78
2023/09/28 05:21:48;;;;;;;1.48;1.02;;;15.10;1.00;;;;;;4972303;28;20050;-79
2023/09/28 05:24:14;;;;;;;0.32;0.32;;;15.10;1.00;;;;;;4965904;28;20083;-79
2023/09/28 05:26:41;;;;;;;2.38;0.50;;;15.00;1.00;;;;;;4966981;28;20475;-80
2023/09/28 05:29:07;;;;;;;0.50;0.50;;;15.00;1.00;;;;;;4965980;28;20043;-80
2023/09/28 05:31:34;;;;;;;2.75;1.92;;;15.00;1.00;;;;;;4981147;28;20396;-79
2023/09/28 05:34:00;;;;;;;1.58;1.00;;;15.00;1.00;;;;;;4971151;28;20051;-80
2023/09/28 05:36:26;;;;;;;0.55;0.55;;;15.10;1.00;;;;;;4939519;29;20046;-80
2023/09/28 05:38:52;;;;;;;1.85;1.30;;;15.10;1.00;;;;;;4967927;28;20038;-80
2023/09/28 05:41:18;;;;;;;0.82;0.80;;;15.20;1.00;;;;;;4965903;28;20031;-79
2023/09/28 05:43:45;;;;;;;3.03;0.90;;;15.20;99.90;;;;;;4968502;28;20054;-80
2023/09/28 05:46:11;;;;;;;0.65;0.40;;;15.20;99.90;;;;;;4986238;28;20049;-79
2023/09/28 05:48:38;;;;;;;0.17;0.13;;;15.20;99.90;;;;;;4988829;28;20039;-80
2023/09/28 05:51:04;;;;;;;0.50;0.40;;;15.20;99.90;;;;;;4962857;28;20053;-81
2023/09/28 05:53:30;;;;;;;1.40;1.27;;;15.20;99.90;;;;;;4978519;28;20038;-81
2023/09/28 05:55:56;;;;;;;1.17;1.08;;;15.30;99.90;;;;;;4962246;28;20042;-81
2023/09/28 05:58:22;;;;;;;0.43;0.35;;;15.30;99.90;;;;;;4972513;28;20057;-83
2023/09/28 06:00:48;;;;;;;1.95;1.23;;;15.40;99.90;;;;;;4988111;28;20042;-81
2023/09/28 06:03:15;;;;;;;6.53;0.55;;;15.40;99.90;;;;;;4980174;28;20034;-80
2023/09/28 06:05:41;;;;;;;1.23;0.93;;;15.50;99.90;;;;;;4961837;28;20031;-80
2023/09/28 06:08:07;;;;;;;1.05;0.73;;;15.60;99.90;;;;;;4973702;28;20046;-82
2023/09/28 06:10:34;;;;;;;1.10;0.85;;;15.60;99.90;;;;;;4972211;28;20030;-81
2023/09/28 06:13:00;;;;;;;1.52;0.65;;;15.70;99.90;;;;;;4982136;28;20046;-86
2023/09/28 06:15:26;;;;;;;0.70;0.70;;;15.70;99.90;;;;;;4974919;28;20101;-87
2023/09/28 06:17:53;;;;;;;1.23;0.82;;;15.70;99.90;;;;;;4963188;28;20053;-84
2023/09/28 06:20:20;;;;;;;0.52;0.52;;;15.60;99.90;;;;;;4965805;28;20043;-80
2023/09/28 06:22:46;;;;;;;1.33;0.75;;;15.60;99.90;;;;;;4983366;28;20038;-80
2023/09/28 06:25:12;;;;;;;0.82;0.82;;;15.60;99.90;;;;;;4947106;28;20058;-80
2023/09/28 06:27:39;;;;;;;0.95;0.88;;;15.50;99.90;;;;;;4962200;28;20046;-78
2023/09/28 06:30:05;;;;;;;0.60;0.40;;;15.50;99.90;;;;;;4974659;28;20232;-80
2023/09/28 06:32:32;;;;;;;0.90;0.63;;;15.70;99.90;;;;;;4976828;28;20047;-81
2023/09/28 06:34:58;;;;;;;0.57;0.55;;;15.70;99.90;;;;;;4975662;28;20043;-80
2023/09/28 06:37:24;;;;;;;0.45;0.40;;;15.80;99.90;;;;;;4989243;28;20015;-81
2023/09/28 06:39:50;;;;;;;1.85;0.95;;;15.90;99.90;;;;;;4984335;28;20515;-80
2023/09/28 06:42:16;;;;;;;9.15;2.15;;;16.00;99.90;;;;;;4981572;28;20023;-80
2023/09/28 06:44:42;;;;;;;1.08;0.75;;;16.10;99.90;;;;;;4983364;28;20037;-80
2023/09/28 06:47:08;;;;;;;0.60;0.43;;;16.30;99.90;;;;;;4967573;28;20035;-83
2023/09/28 06:49:36;;;;;;;0.63;0.63;;;16.40;99.90;;;;;;4977069;28;20483;-81
2023/09/28 06:52:03;;;;;;;0.45;0.35;;;16.50;99.90;;;;;;4982938;28;20042;-80
2023/09/28 06:54:31;;;;;;;1.48;0.40;;;16.60;99.90;;;;;;4993406;28;20050;-80
2023/09/28 06:56:57;;;;;;;0.47;0.45;;;16.70;84.80;;;;;;4975360;28;20037;-82
2023/09/28 06:59:23;;;;;;;0.47;0.47;;;16.80;52.10;;;;;;4997301;28;20022;-81
2023/09/28 07:01:49;;;;;;;1.17;1.08;;;16.90;49.40;;;;;;4983058;28;20122;-80
2023/09/28 07:04:16;;;;;;;2.40;0.88;;;17.00;8.50;;;;;;4994468;28;20038;-76
2023/09/28 07:06:42;;;;;;;1.13;0.93;;;17.00;2.00;;;;;;4982631;28;20027;-80
2023/09/28 07:09:08;;;;;;;1.52;0.60;;;17.20;1.00;;;;;;4992816;28;20144;-81
2023/09/28 07:11:35;;;;;;;0.35;0.35;;;17.30;1.00;;;;;;4993325;28;20051;-80
2023/09/28 07:14:01;;;;;;;0.60;0.45;;;17.40;1.00;;;;;;4981108;28;20038;-81
2023/09/28 07:16:36;;;;;;;1.08;0.75;;;17.40;1.00;;;;;;4967236;28;20052;-81
2023/09/28 07:19:04;;;;;;;5.93;0.82;;;17.50;1.00;;;;;;4969645;28;20050;-79
2023/09/28 07:21:31;;;;;;;1.50;0.80;;;17.60;1.00;;;;;;4981082;28;20050;-80
2023/09/28 07:23:57;;;;;;;0.55;0.35;;;17.60;1.00;;;;;;4969981;28;20051;-79
2023/09/28 07:26:23;;;;;;;1.23;0.57;;;17.70;1.00;;;;;;4991784;28;20034;-77
2023/09/28 07:28:49;;;;;;;0.35;0.35;;;17.70;1.00;;;;;;4981744;28;20045;-80
2023/09/28 07:31:15;;;;;;;2.08;1.25;;;17.70;1.00;;;;;;4984240;28;20043;-76
2023/09/28 07:33:43;;;;;;;0.32;0.32;;;17.80;1.00;;;;;;4976176;28;20062;-78
2023/09/28 07:36:09;;;;;;;3.20;0.60;;;18.00;1.00;;;;;;4977349;28;20039;-78
2023/09/28 07:38:35;;;;;;;1.00;0.82;;;18.20;1.00;;;;;;4985979;28;20030;-76
2023/09/28 07:41:02;;;;;;;6.15;0.73;;;18.40;99.90;;;;;;4988039;28;20115;-77
2023/09/28 07:43:29;;;;;;;0.40;0.40;;;18.50;99.90;;;;;;4976921;28;20062;-78
2023/09/28 07:45:55;;;;;;;0.40;0.40;;;18.70;99.90;;;;;;4986856;28;20034;-80
2023/09/28 07:48:22;;;;;;;0.77;0.75;;;18.90;99.90;;;;;;4991215;28;20030;-78
2023/09/28 07:50:48;;;;;;;0.68;0.68;;;19.20;99.90;;;;;;4988330;28;20369;-80
2023/09/28 07:53:14;;;;;;;0.77;0.40;;;19.40;99.90;;;;;;4969490;28;20047;-79
2023/09/28 07:55:41;;;;;;;1.73;1.17;;;19.70;99.90;;;;;;4958242;28;20469;-78
2023/09/28 07:58:07;;;;;;;1.02;0.70;;;19.50;99.90;;;;;;4949956;28;20053;-82
2023/09/28 08:00:33;;;;;;;0.95;0.80;;;19.70;99.90;;;;;;4980094;28;20027;-79
2023/09/28 08:03:00;;;;;;;2.28;1.38;;;19.90;99.90;;;;;;4988242;28;20091;-78
2023/09/28 08:05:26;;;;;;;0.75;0.45;;;20.10;99.90;;;;;;4974322;28;20050;-80
2023/09/28 08:07:52;;;;;;;1.17;1.08;;;20.30;99.90;;;;;;4953506;28;20047;-81
2023/09/28 08:10:18;;;;;;;0.88;0.88;;;20.70;99.90;;;;;;4965490;28;20046;-79
2023/09/28 08:12:46;;;;;;;0.57;0.47;;;20.60;99.90;;;;;;4984442;28;20042;-79
2023/09/28 08:15:12;;;;;;;0.55;0.47;;;20.60;99.90;;;;;;4968327;28;20045;-79
2023/09/28 08:17:41;;;;;;;0.25;0.25;;;20.70;99.90;;;;;;4940809;29;20485;-80
2023/09/28 08:20:07;;;;;;;0.32;0.32;;;20.80;99.90;;;;;;4974433;28;20039;-82
2023/09/28 08:22:35;;;;;;;0.20;0.20;;;20.60;99.90;;;;;;4978499;28;20038;-81
2023/09/28 08:25:05;;;;;;;0.85;0.73;;;21.00;99.90;;;;;;4968802;28;20027;-79
2023/09/28 08:27:31;;;;;;;0.77;0.77;;;21.40;99.90;;;;;;4956895;28;20035;-80
2023/09/28 08:29:57;;;;;;;4.43;0.35;;;21.30;99.90;;;;;;4940975;28;20046;-81
2023/09/28 08:32:24;;;;;;;2.95;1.42;;;21.30;99.90;;;;;;4975803;28;20056;-83
2023/09/28 08:34:50;;;;;;;0.60;0.43;;;21.20;99.90;;;;;;4952918;28;20058;-82
2023/09/28 08:37:16;;;;;;;1.00;0.70;;;21.40;99.90;;;;;;4967246;28;20053;-82
2023/09/28 08:39:43;;;;;;;0.57;0.57;;;21.70;99.90;;;;;;4941100;28;20046;-82
2023/09/28 08:42:15;;;;;;;0.68;0.57;;;22.00;99.90;;;;;;4960216;28;20038;-84
2023/09/28 08:44:41;;;;;;;0.63;0.47;;;21.80;89.30;;;;;;4962040;28;20059;-82
2023/09/28 08:47:20;;;;;;;0.45;0.45;;;21.60;98.40;;;;;;4962838;28;20034;-82
2023/09/28 08:49:50;;;;;;;0.73;0.73;;;21.70;99.90;;;;;;4953225;28;20053;-82
2023/09/28 08:52:16;;;;;;;;;;;22.00;99.90;;;;;;4969530;28;20038;-83
2023/09/28 08:54:43;;;;;;;1.48;0.80;;;22.20;95.90;;;;;;4974234;28;20319;-80
2023/09/28 08:57:10;;;;;;;0.55;0.55;;;22.40;79.80;;;;;;4960369;28;20043;-81
2023/09/28 08:59:38;;;;;;;0.20;0.20;;;22.30;76.90;;;;;;4954625;28;20489;-81
2023/09/28 09:02:05;;;;;;;2.05;1.17;;;22.30;82.80;;;;;;4950910;28;20050;-82
2023/09/28 09:04:34;;;;;;;1.05;0.90;;;22.50;74.60;;;;;;4962225;28;20472;-79
2023/09/28 09:07:04;;;;;;;1.65;1.02;;;22.50;52.70;;;;;;4970950;28;20050;-83
2023/09/28 09:09:35;;;;;;;0.43;0.43;;;22.60;68.50;;;;;;4955221;28;20047;-81
2023/09/28 09:12:09;;;;;;;1.50;0.82;;;23.10;34.50;;;;;;4963675;28;20038;-81
2023/09/28 09:14:35;;;;;;;0.88;0.70;;;23.30;38.90;;;;;;4975468;28;20373;-81
2023/09/28 09:17:02;;;;;;;0.30;0.30;;;23.30;22.00;;;;;;4958647;28;20039;-81
2023/09/28 09:19:30;;;;;;;2.03;0.80;;;22.90;54.80;;;;;;4954124;28;20126;-81
2023/09/28 09:21:57;;;;;;;1.92;1.10;;;23.00;53.50;;;;;;4948369;28;20057;-79
2023/09/28 09:24:23;;;;;;;1.63;0.98;;;23.20;22.50;;;;;;4967091;28;20164;-81
2023/09/28 09:26:56;;;;;;;0.98;0.63;;;23.10;35.40;;;;;;4976642;28;20035;-81
2023/09/28 09:29:23;;;;;;;1.75;1.00;;;23.30;25.80;;;;;;4964782;28;20031;-81
2023/09/28 09:31:50;;;;;;;1.65;0.68;;;23.90;16.20;;;;;;4965401;28;20046;-82
2023/09/28 09:34:19;;;;;;;1.85;0.88;;;23.60;11.40;;;;;;4971555;28;20047;-81
2023/09/28 09:36:56;;;;;;;1.25;0.43;;;23.60;25.00;;;;;;4956166;28;20042;-83
2023/09/28 09:39:24;;;;;;;0.30;0.30;;;24.20;1.00;;;;;;4948691;28;20038;-83
2023/09/28 09:41:51;;;;;;;0.63;0.63;;;23.50;1.00;;;;;;4962310;28;20039;-81
2023/09/28 09:44:19;;;;;;;1.88;0.40;;;23.40;9.20;;;;;;4981024;28;20030;-83
2023/09/28 09:46:48;;;;;;;0.60;0.60;;;23.50;17.10;;;;;;4966194;28;20054;-83
2023/09/28 09:49:16;;;;;;;1.27;0.95;;;23.30;16.10;;;;;;4966654;28;20115;-84
2023/09/28 09:51:45;;;;;;;0.50;0.50;;;23.30;13.00;;;;;;4971239;28;20069;-85
2023/09/28 09:54:16;;;;;;;0.47;0.47;;;23.50;6.90;;;;;;4960290;28;20081;-82
2023/09/28 09:56:44;;;;;;;0.38;0.38;;;23.50;7.30;;;;;;4980873;28;20030;-83
2023/09/28 09:59:18;;;;;;;16.55;1.90;;;23.50;11.40;;;;;;4975140;28;20038;-83
2023/09/28 10:01:49;;;;;;;0.55;0.55;;;23.50;8.30;;;;;;4947165;28;20039;-77
2023/09/28 10:04:16;;;;;;;0.65;0.63;;;23.60;5.20;;;;;;4941994;28;20854;-81
2023/09/28 10:06:54;;;;;;;0.68;0.68;;;23.60;1.00;;;;;;4949766;28;20073;-82
2023/09/28 10:09:21;;;;;;;0.95;0.63;;;23.90;1.00;;;;;;4945534;28;20044;-81
2023/09/28 10:11:49;;;;;;;0.32;0.30;;;23.90;1.00;;;;;;4954054;28;20043;-80
2023/09/28 10:14:19;;;;;;;0.32;0.32;;;24.00;1.00;;;;;;4967755;28;20062;-83
2023/09/28 10:16:51;;;;;;;0.50;0.50;;;24.00;1.00;;;;;;4979635;28;20053;-83
2023/09/28 10:19:20;;;;;;;0.95;0.60;;;24.10;1.00;;;;;;4962695;28;20065;-89
2023/09/28 10:21:47;;;;;;;0.20;0.20;;;24.00;1.00;;;;;;4946805;28;20038;-86
2023/09/28 10:24:15;;;;;;;0.60;0.60;;;23.70;1.00;;;;;;4945906;28;20074;-84
2023/09/28 10:26:50;;;;;;;0.52;0.52;;;23.40;1.00;;;;;;4959685;28;20049;-84
2023/09/28 10:29:23;;;;;;;0.30;0.30;;;23.10;1.00;;;;;;4950928;28;20043;-82
2023/09/28 10:31:53;;;;;;;0.85;0.85;;;23.10;13.50;;;;;;4972101;28;20460;-81
2023/09/28 10:34:20;;;;;;;0.38;0.38;;;23.40;1.00;;;;;;4957609;28;20050;-82
2023/09/28 10:37:05;;;;;;;0.63;0.63;;;23.40;1.00;;;;;;4945109;28;20035;-80
2023/09/28 10:39:31;;;;;;;0.20;0.20;;;23.60;1.00;;;;;;4977533;28;20037;-81
2023/09/28 10:42:06;;;;;;;0.20;0.20;;;23.60;1.00;;;;;;4961558;28;20027;-82
2023/09/28 10:44:32;;;;;;;1.67;0.68;;;23.80;1.00;;;;;;4955785;28;20050;-80
2023/09/28 10:46:58;;;;;;;0.73;0.65;;;23.90;1.00;;;;;;4966611;28;20031;-83
2023/09/28 10:49:28;;;;;;;0.55;0.20;;;24.10;1.00;;;;;;4969872;28;20042;-80
2023/09/28 10:51:56;;;;;;;0.63;0.52;;;24.00;1.00;;;;;;4979657;28;20035;-82
2023/09/28 10:54:25;;;;;;;1.60;0.70;;;24.00;1.00;;;;;;4961770;28;20464;-81
2023/09/28 10:56:52;;;;;;;0.50;0.50;;;24.10;1.00;;;;;;4964053;28;20039;-80
2023/09/28 10:59:18;;;;;;;0.30;0.20;;;24.30;1.00;;;;;;4981298;28;20038;-83
2023/09/28 11:01:46;;;;;;;0.43;0.20;;;24.50;1.00;;;;;;4965231;28;20054;-80
2023/09/28 11:04:13;;;;;;;0.20;0.20;;;24.60;1.00;;;;;;4969783;28;20393;-80
2023/09/28 11:06:41;;;;;;;0.70;0.70;;;24.60;1.00;;;;;;4976682;28;20039;-81
2023/09/28 11:09:10;;;;;;;0.70;0.70;;;24.30;1.00;;;;;;4969046;28;20363;-83
2023/09/28 11:11:37;;;;;;;0.55;0.55;;;24.50;1.00;;;;;;4962279;28;20035;-81
2023/09/28 11:14:07;;;;;;;0.32;0.32;;;24.70;1.00;;;;;;4979007;28;20044;-81
2023/09/28 11:16:38;;;;;;;0.40;0.40;;;24.80;1.00;;;;;;4973860;28;20034;-80
2023/09/28 11:19:05;;;;;;;1.30;0.40;;;24.90;1.00;;;;;;4962704;28;20338;-79
2023/09/28 11:21:32;;;;;;;1.45;0.73;;;25.00;1.00;;;;;;4984088;28;20379;-80
2023/09/28 11:24:00;;;;;;;0.20;0.20;;;25.10;1.00;;;;;;4978102;28;20057;-79
2023/09/28 11:26:28;;;;;;;3.15;1.08;;;25.20;1.00;;;;;;4964029;28;20091;-80
2023/09/28 11:28:56;;;;;;;0.30;0.30;;;25.20;1.00;;;;;;4965634;28;20035;-79
2023/09/28 11:31:22;;;;;;;0.30;0.30;;;25.10;1.00;;;;;;4977273;28;20034;-80
2023/09/28 11:33:49;;;;;;;1.58;0.30;;;24.90;1.00;;;;;;4964008;28;20058;-80
2023/09/28 11:36:21;;;;;;;1.15;0.60;;;24.80;1.00;;;;;;4958736;28;20046;-80
2023/09/28 11:38:49;;;;;;;0.20;0.20;;;25.00;1.00;;;;;;4975828;28;20035;-81
2023/09/28 11:41:16;;;;;;;0.60;0.40;;;25.20;1.00;;;;;;4950357;28;20031;-80
2023/09/28 11:43:49;;;;;;;0.20;0.20;;;25.30;1.00;;;;;;4963607;28;20042;-80
2023/09/28 11:46:27;;;;;;;0.35;0.35;;;25.30;1.00;;;;;;4964697;28;20042;-79
2023/09/28 11:49:11;;;;;;;2.92;0.80;;;25.30;1.00;;;;;;4982189;28;20042;-82
2023/09/28 11:51:38;;;;;;;1.33;0.75;;;25.40;1.00;;;;;;4972466;28;20050;-81
2023/09/28 11:54:09;;;;;;;0.20;0.20;;;25.50;1.00;;;;;;4944255;28;20149;-82
2023/09/28 11:56:36;;;;;;;0.60;0.50;;;25.40;1.00;;;;;;4965180;28;20043;-80
2023/09/28 11:59:03;;;;;;;0.52;0.47;;;25.40;1.00;;;;;;4977063;28;20416;-82
2023/09/28 12:01:31;;;;;;;0.80;0.80;;;25.50;1.00;;;;;;4960756;28;20027;-80
2023/09/28 12:03:59;;;;;;;0.30;0.28;;;25.70;1.00;;;;;;4959449;28;20042;-81
2023/09/28 12:06:26;;;;;;;0.65;0.65;;;25.80;1.00;;;;;;4977646;28;20037;-81
2023/09/28 12:08:53;;;;;;;0.20;0.20;;;25.90;1.00;;;;;;4958897;28;20042;-81
2023/09/28 12:11:19;;;;;;;0.73;0.73;;;25.90;1.00;;;;;;4967395;28;20030;-81
2023/09/28 12:13:46;;;;;;;0.20;0.20;;;25.90;1.00;;;;;;4959021;28;20042;-81
2023/09/28 12:16:14;;;;;;;0.13;0.13;;;25.90;1.00;;;;;;4963232;28;20419;-83
2023/09/28 12:18:40;;;;;;;0.20;0.20;;;25.80;1.00;;;;;;4974059;28;20516;-83
2023/09/28 12:21:09;;;;;;;3.08;1.85;;;25.70;1.00;;;;;;4947147;28;20511;-84
2023/09/28 12:23:37;;;;;;;0.20;0.20;;;25.70;1.00;;;;;;4970844;28;20046;-81
2023/09/28 12:26:04;;;;;;;1.30;0.50;;;25.70;1.00;;;;;;4964700;28;20038;-81
2023/09/28 12:28:30;;;;;;;0.73;0.68;;;25.80;1.00;;;;;;4971435;28;20031;-79
2023/09/28 12:30:56;;;;;;;0.38;0.38;;;25.80;1.00;;;;;;4936208;28;20468;-81
2023/09/28 12:33:22;;;;;;;1.10;0.73;;;25.80;1.00;;;;;;4961042;28;20081;-80
2023/09/28 12:35:48;;;;;;;0.17;0.17;;;25.90;1.00;;;;;;4955922;28;20353;-80
2023/09/28 12:38:14;;;;;;;0.30;0.30;;;25.90;1.00;;;;;;4957109;28;20055;-80
2023/09/28 12:40:42;;;;;;;1.60;0.52;;;25.90;1.00;;;;;;4969337;28;20137;-81
2023/09/28 12:43:10;;;;;;;1.90;0.20;;;25.90;1.00;;;;;;4971343;28;20038;-80
2023/09/28 12:45:36;;;;;;;0.75;0.75;;;26.00;1.00;;;;;;4960449;28;20338;-84
2023/09/28 12:48:04;;;;;;;1.33;1.00;;;26.20;1.00;;;;;;4984042;28;20476;-83
2023/09/28 12:50:31;;;;;;;1.92;0.90;;;26.20;1.00;;;;;;4971910;28;20035;-83
2023/09/28 12:52:58;;;;;;;0.55;0.55;;;26.00;1.00;;;;;;4969195;28;20035;-83